Ninole, HI (96773)

12:35 PM HST on July 27, 2016 (GMT -1000)
Hamakua Coast | | Change Station

Elev 1120 ft 19.92 °N, 155.18 °W | Updated 2 minutes ago

Scattered Clouds
Scattered Clouds
77.4 °F
Feels Like 79 °F
N
12.0
Wind Variable Wind from ESE

Today
High -- | Low -- °F
--% Chance of Precip.
Yesterday
High -- | Low -- °F
Precip. -- in
Pressure 30.02 in
Visibility 10.0 miles
Clouds Few 2500 ft
Scattered Clouds 3600 ft
Scattered Clouds 6000 ft
Heat Index 79 °F
Dew Point 73 °F
Humidity 85%
Rainfall 0.03 in
Snow Depth Not available.
5:54 AM 6:59 PM
Last Quarter, 39% visible
METAR PHTO 272153Z 36007KT 10SM FEW025 SCT036 SCT060 29/22 A3002 RMK AO2 RAE2058 SLP165 P0000 T02940222
Pressure 30.02 in
Visibility 10.0 miles
Clouds Few 2500 ft
Scattered Clouds 3600 ft
Scattered Clouds 6000 ft
Heat Index 79 °F
Dew Point 73 °F
Humidity 85%
Rainfall 0.03 in
Snow Depth Not available.
5:54 AM 6:59 PM
Last Quarter, 39% visible
METAR PHTO 272153Z 36007KT 10SM FEW025 SCT036 SCT060 29/22 A3002 RMK AO2 RAE2058 SLP165 P0000 T02940222

10-Day Weather Forecast

Almanac

Astronomy

Jul. 27, 2016 Rise Set
Actual Time
Civil Twilight
Nautical Twilight
Astronomical Twilight
Moon
Length of Visible Light
Length of Day
Tomorrow will be .
, % of the Moon is Illuminated

Today's Extremes

State Highs State Lows

Community

WunderPhotos

Upload Photos

1,927,951 photos uploaded!

WunderBlog® & News

Nearby

Air Quality

  Air Quality AQ Index Pollutant
Not available.

Snow Depth

Station Depth Elevation

Earthquake Activity

City Distance Mag. Time & Date
Minimum magnitude displayed is 2.5.

Coastal Water Temperatures

Place Temperature

Stations

Nearby Weather Stations

Station Location Temp. Windchill Dew Point Humidity Wind Precip. Elev Updated Type
                   

Watches & Warnings

There are currently no watches in effect.